sensor_id;sensor_type;location;lat;lon;timestamp;temperature;humidity
64654;DHT22;51065;48.884;12.598;2024-03-02T00:00:19;5.60;99.90
64654;DHT22;51065;48.884;12.598;2024-03-02T00:02:47;5.60;99.90
64654;DHT22;51065;48.884;12.598;2024-03-02T00:05:15;5.60;99.90
64654;DHT22;51065;48.884;12.598;2024-03-02T00:07:45;5.60;99.90
64654;DHT22;51065;48.884;12.598;2024-03-02T00:10:16;5.60;99.90
64654;DHT22;51065;48.884;12.598;2024-03-02T00:12:42;5.60;99.90
64654;DHT22;51065;48.884;12.598;2024-03-02T00:15:40;5.60;99.90
64654;DHT22;51065;48.884;12.598;2024-03-02T00:18:10;5.60;99.90
64654;DHT22;51065;48.884;12.598;2024-03-02T00:20:36;5.60;99.90
64654;DHT22;51065;48.884;12.598;2024-03-02T00:23:06;5.60;99.90
64654;DHT22;51065;48.884;12.598;2024-03-02T00:25:53;5.60;99.90
64654;DHT22;51065;48.884;12.598;2024-03-02T00:30:54;5.60;99.90
64654;DHT22;51065;48.884;12.598;2024-03-02T00:33:21;5.60;99.90
64654;DHT22;51065;48.884;12.598;2024-03-02T00:35:47;5.60;99.90
64654;DHT22;51065;48.884;12.598;2024-03-02T00:38:14;5.60;99.90
64654;DHT22;51065;48.884;12.598;2024-03-02T00:40:42;5.60;99.90
64654;DHT22;51065;48.884;12.598;2024-03-02T00:43:41;5.60;99.90
64654;DHT22;51065;48.884;12.598;2024-03-02T00:46:08;5.60;99.90
64654;DHT22;51065;48.884;12.598;2024-03-02T00:48:34;5.60;99.90
64654;DHT22;51065;48.884;12.598;2024-03-02T00:51:03;5.60;99.90
64654;DHT22;51065;48.884;12.598;2024-03-02T00:53:30;5.60;99.90
64654;DHT22;51065;48.884;12.598;2024-03-02T00:55:56;5.60;99.90
64654;DHT22;51065;48.884;12.598;2024-03-02T00:58:22;5.60;99.90
64654;DHT22;51065;48.884;12.598;2024-03-02T01:00:48;5.60;99.90
64654;DHT22;51065;48.884;12.598;2024-03-02T01:03:13;5.60;99.90
64654;DHT22;51065;48.884;12.598;2024-03-02T01:05:42;5.60;99.90
64654;DHT22;51065;48.884;12.598;2024-03-02T01:08:09;5.70;99.90
64654;DHT22;51065;48.884;12.598;2024-03-02T01:10:34;5.70;99.90
64654;DHT22;51065;48.884;12.598;2024-03-02T01:13:00;5.70;99.90
64654;DHT22;51065;48.884;12.598;2024-03-02T01:15:25;5.60;99.90
64654;DHT22;51065;48.884;12.598;2024-03-02T01:17:51;5.70;99.90
64654;DHT22;51065;48.884;12.598;2024-03-02T01:20:16;5.70;99.90
64654;DHT22;51065;48.884;12.598;2024-03-02T01:22:42;5.70;99.90
64654;DHT22;51065;48.884;12.598;2024-03-02T01:25:08;5.70;99.90
64654;DHT22;51065;48.884;12.598;2024-03-02T01:27:34;5.60;99.90
64654;DHT22;51065;48.884;12.598;2024-03-02T01:29:59;5.70;99.90
64654;DHT22;51065;48.884;12.598;2024-03-02T01:32:25;5.70;99.90
64654;DHT22;51065;48.884;12.598;2024-03-02T01:34:51;5.70;99.90
64654;DHT22;51065;48.884;12.598;2024-03-02T01:37:16;5.70;99.90
64654;DHT22;51065;48.884;12.598;2024-03-02T01:39:42;5.70;99.90
64654;DHT22;51065;48.884;12.598;2024-03-02T01:42:07;5.70;99.90
64654;DHT22;51065;48.884;12.598;2024-03-02T01:44:33;5.70;99.90
64654;DHT22;51065;48.884;12.598;2024-03-02T01:46:59;5.70;99.90
64654;DHT22;51065;48.884;12.598;2024-03-02T01:49:24;5.70;99.90
64654;DHT22;51065;48.884;12.598;2024-03-02T01:51:50;5.70;99.90
64654;DHT22;51065;48.884;12.598;2024-03-02T01:54:16;5.60;99.90
64654;DHT22;51065;48.884;12.598;2024-03-02T01:56:42;5.70;99.90
64654;DHT22;51065;48.884;12.598;2024-03-02T01:59:08;5.70;99.90
64654;DHT22;51065;48.884;12.598;2024-03-02T02:01:33;5.70;99.90
64654;DHT22;51065;48.884;12.598;2024-03-02T02:03:59;5.70;99.90
64654;DHT22;51065;48.884;12.598;2024-03-02T02:06:26;5.70;99.90
64654;DHT22;51065;48.884;12.598;2024-03-02T02:08:52;5.70;99.90
64654;DHT22;51065;48.884;12.598;2024-03-02T02:11:17;5.70;99.90
64654;DHT22;51065;48.884;12.598;2024-03-02T02:13:43;5.70;99.90
64654;DHT22;51065;48.884;12.598;2024-03-02T02:16:09;5.70;99.90
64654;DHT22;51065;48.884;12.598;2024-03-02T02:18:35;5.70;99.90
64654;DHT22;51065;48.884;12.598;2024-03-02T02:21:01;5.70;99.90
64654;DHT22;51065;48.884;12.598;2024-03-02T02:23:27;5.70;99.90
64654;DHT22;51065;48.884;12.598;2024-03-02T02:25:53;5.80;99.90
64654;DHT22;51065;48.884;12.598;2024-03-02T02:28:19;5.70;99.90
64654;DHT22;51065;48.884;12.598;2024-03-02T02:30:44;5.80;99.90
64654;DHT22;51065;48.884;12.598;2024-03-02T02:33:10;5.80;99.90
64654;DHT22;51065;48.884;12.598;2024-03-02T02:35:35;5.70;99.90
64654;DHT22;51065;48.884;12.598;2024-03-02T02:38:01;5.80;99.90
64654;DHT22;51065;48.884;12.598;2024-03-02T02:40:27;5.80;99.90
64654;DHT22;51065;48.884;12.598;2024-03-02T02:42:56;5.80;99.90
64654;DHT22;51065;48.884;12.598;2024-03-02T02:45:21;5.80;99.90
64654;DHT22;51065;48.884;12.598;2024-03-02T02:47:47;5.80;99.90
64654;DHT22;51065;48.884;12.598;2024-03-02T02:50:13;5.80;99.90
64654;DHT22;51065;48.884;12.598;2024-03-02T02:52:40;5.80;99.90
64654;DHT22;51065;48.884;12.598;2024-03-02T02:55:07;5.80;99.90
64654;DHT22;51065;48.884;12.598;2024-03-02T02:57:34;5.80;99.90
64654;DHT22;51065;48.884;12.598;2024-03-02T03:00:08;5.80;99.90
64654;DHT22;51065;48.884;12.598;2024-03-02T03:02:42;5.80;99.90
64654;DHT22;51065;48.884;12.598;2024-03-02T03:05:10;5.80;99.90
64654;DHT22;51065;48.884;12.598;2024-03-02T03:07:37;5.80;99.90
64654;DHT22;51065;48.884;12.598;2024-03-02T03:10:05;5.80;99.90
64654;DHT22;51065;48.884;12.598;2024-03-02T03:12:32;5.80;99.90
64654;DHT22;51065;48.884;12.598;2024-03-02T03:14:58;5.80;99.90
64654;DHT22;51065;48.884;12.598;2024-03-02T03:17:24;5.80;99.90
64654;DHT22;51065;48.884;12.598;2024-03-02T03:19:50;5.80;99.90
64654;DHT22;51065;48.884;12.598;2024-03-02T03:22:19;5.80;99.90
64654;DHT22;51065;48.884;12.598;2024-03-02T03:24:44;5.80;99.90
64654;DHT22;51065;48.884;12.598;2024-03-02T03:27:10;5.80;99.90
64654;DHT22;51065;48.884;12.598;2024-03-02T03:29:39;5.80;99.90
64654;DHT22;51065;48.884;12.598;2024-03-02T03:32:04;5.80;99.90
64654;DHT22;51065;48.884;12.598;2024-03-02T03:34:35;5.70;99.90
64654;DHT22;51065;48.884;12.598;2024-03-02T03:37:01;5.70;99.90
64654;DHT22;51065;48.884;12.598;2024-03-02T03:39:27;5.70;99.90
64654;DHT22;51065;48.884;12.598;2024-03-02T03:41:52;5.70;99.90
64654;DHT22;51065;48.884;12.598;2024-03-02T03:44:18;5.70;99.90
64654;DHT22;51065;48.884;12.598;2024-03-02T03:46:44;5.70;99.90
64654;DHT22;51065;48.884;12.598;2024-03-02T03:49:10;5.70;99.90
64654;DHT22;51065;48.884;12.598;2024-03-02T03:51:35;5.70;99.90
64654;DHT22;51065;48.884;12.598;2024-03-02T03:54:01;5.70;99.90
64654;DHT22;51065;48.884;12.598;2024-03-02T03:56:27;5.70;99.90
64654;DHT22;51065;48.884;12.598;2024-03-02T03:58:52;5.60;99.90
64654;DHT22;51065;48.884;12.598;2024-03-02T04:01:18;5.70;99.90
64654;DHT22;51065;48.884;12.598;2024-03-02T04:03:44;5.70;99.90
64654;DHT22;51065;48.884;12.598;2024-03-02T04:06:09;5.60;99.90
64654;DHT22;51065;48.884;12.598;2024-03-02T04:08:35;5.60;99.90
64654;DHT22;51065;48.884;12.598;2024-03-02T04:11:00;5.70;99.90
64654;DHT22;51065;48.884;12.598;2024-03-02T04:13:28;5.70;99.90
64654;DHT22;51065;48.884;12.598;2024-03-02T04:15:53;5.70;99.90
64654;DHT22;51065;48.884;12.598;2024-03-02T04:18:19;5.70;99.90
64654;DHT22;51065;48.884;12.598;2024-03-02T04:20:44;5.70;99.90
64654;DHT22;51065;48.884;12.598;2024-03-02T04:23:10;5.70;99.90
64654;DHT22;51065;48.884;12.598;2024-03-02T04:25:35;5.70;99.90
64654;DHT22;51065;48.884;12.598;2024-03-02T04:28:01;5.70;99.90
64654;DHT22;51065;48.884;12.598;2024-03-02T04:30:27;5.70;99.90
64654;DHT22;51065;48.884;12.598;2024-03-02T04:32:52;5.70;99.90
64654;DHT22;51065;48.884;12.598;2024-03-02T04:35:18;5.70;99.90
64654;DHT22;51065;48.884;12.598;2024-03-02T04:37:43;5.70;99.90
64654;DHT22;51065;48.884;12.598;2024-03-02T04:40:09;5.70;99.90
64654;DHT22;51065;48.884;12.598;2024-03-02T04:42:36;5.70;99.90
64654;DHT22;51065;48.884;12.598;2024-03-02T04:45:02;5.70;99.90
64654;DHT22;51065;48.884;12.598;2024-03-02T04:47:27;5.70;99.90
64654;DHT22;51065;48.884;12.598;2024-03-02T04:49:53;5.70;99.90
64654;DHT22;51065;48.884;12.598;2024-03-02T04:52:18;5.70;99.90
64654;DHT22;51065;48.884;12.598;2024-03-02T04:54:44;5.80;99.90
64654;DHT22;51065;48.884;12.598;2024-03-02T04:57:28;5.70;99.90
64654;DHT22;51065;48.884;12.598;2024-03-02T04:59:54;5.80;99.90
64654;DHT22;51065;48.884;12.598;2024-03-02T05:02:19;5.80;99.90
64654;DHT22;51065;48.884;12.598;2024-03-02T05:04:45;5.70;99.90
64654;DHT22;51065;48.884;12.598;2024-03-02T05:07:10;5.80;99.90
64654;DHT22;51065;48.884;12.598;2024-03-02T05:09:36;5.80;99.90
64654;DHT22;51065;48.884;12.598;2024-03-02T05:12:02;5.80;99.90
64654;DHT22;51065;48.884;12.598;2024-03-02T05:14:56;5.80;99.90
64654;DHT22;51065;48.884;12.598;2024-03-02T05:17:22;5.80;99.90
64654;DHT22;51065;48.884;12.598;2024-03-02T05:19:47;5.80;99.90
64654;DHT22;51065;48.884;12.598;2024-03-02T05:22:13;5.80;99.90
64654;DHT22;51065;48.884;12.598;2024-03-02T05:24:39;5.80;99.90
64654;DHT22;51065;48.884;12.598;2024-03-02T05:27:04;5.80;99.90
64654;DHT22;51065;48.884;12.598;2024-03-02T05:29:31;5.80;99.90
64654;DHT22;51065;48.884;12.598;2024-03-02T05:31:57;5.70;99.90
64654;DHT22;51065;48.884;12.598;2024-03-02T05:34:22;5.70;99.90
64654;DHT22;51065;48.884;12.598;2024-03-02T05:36:48;5.70;99.90
64654;DHT22;51065;48.884;12.598;2024-03-02T05:39:13;5.70;99.90
64654;DHT22;51065;48.884;12.598;2024-03-02T05:41:39;5.70;99.90
64654;DHT22;51065;48.884;12.598;2024-03-02T05:44:04;5.70;99.90
64654;DHT22;51065;48.884;12.598;2024-03-02T05:46:30;5.70;99.90
64654;DHT22;51065;48.884;12.598;2024-03-02T05:49:02;5.70;99.90
64654;DHT22;51065;48.884;12.598;2024-03-02T05:51:27;5.70;99.90
64654;DHT22;51065;48.884;12.598;2024-03-02T05:53:53;5.70;99.90
64654;DHT22;51065;48.884;12.598;2024-03-02T05:56:18;5.70;99.90
64654;DHT22;51065;48.884;12.598;2024-03-02T05:58:44;5.70;99.90
64654;DHT22;51065;48.884;12.598;2024-03-02T06:01:26;5.70;99.90
64654;DHT22;51065;48.884;12.598;2024-03-02T06:03:55;5.70;99.90
64654;DHT22;51065;48.884;12.598;2024-03-02T06:06:24;5.70;99.90
64654;DHT22;51065;48.884;12.598;2024-03-02T06:08:50;5.60;99.90
64654;DHT22;51065;48.884;12.598;2024-03-02T06:11:16;5.60;99.90
64654;DHT22;51065;48.884;12.598;2024-03-02T06:13:41;5.60;99.90
64654;DHT22;51065;48.884;12.598;2024-03-02T06:16:07;5.60;99.90
64654;DHT22;51065;48.884;12.598;2024-03-02T06:18:33;5.60;99.90
64654;DHT22;51065;48.884;12.598;2024-03-02T06:20:59;5.50;99.90
64654;DHT22;51065;48.884;12.598;2024-03-02T06:23:26;5.60;99.90
64654;DHT22;51065;48.884;12.598;2024-03-02T06:25:52;5.60;99.90
64654;DHT22;51065;48.884;12.598;2024-03-02T06:28:18;5.60;99.90
64654;DHT22;51065;48.884;12.598;2024-03-02T06:30:43;5.60;99.90
64654;DHT22;51065;48.884;12.598;2024-03-02T06:33:09;5.60;99.90
64654;DHT22;51065;48.884;12.598;2024-03-02T06:35:38;5.60;99.90
64654;DHT22;51065;48.884;12.598;2024-03-02T06:38:04;5.60;99.90
64654;DHT22;51065;48.884;12.598;2024-03-02T06:40:30;5.70;99.90
64654;DHT22;51065;48.884;12.598;2024-03-02T06:42:55;5.70;99.90
64654;DHT22;51065;48.884;12.598;2024-03-02T06:45:21;5.70;99.90
64654;DHT22;51065;48.884;12.598;2024-03-02T06:47:46;5.70;99.90
64654;DHT22;51065;48.884;12.598;2024-03-02T06:50:12;5.70;99.90
64654;DHT22;51065;48.884;12.598;2024-03-02T06:52:37;5.70;99.90
64654;DHT22;51065;48.884;12.598;2024-03-02T06:55:04;5.70;99.90
64654;DHT22;51065;48.884;12.598;2024-03-02T06:57:30;5.70;99.90
64654;DHT22;51065;48.884;12.598;2024-03-02T06:59:56;5.70;99.90
64654;DHT22;51065;48.884;12.598;2024-03-02T07:02:24;5.60;99.90
64654;DHT22;51065;48.884;12.598;2024-03-02T07:04:55;5.60;99.90
64654;DHT22;51065;48.884;12.598;2024-03-02T07:07:21;5.60;99.90
64654;DHT22;51065;48.884;12.598;2024-03-02T07:09:47;5.60;99.90
64654;DHT22;51065;48.884;12.598;2024-03-02T07:12:13;5.60;99.90
64654;DHT22;51065;48.884;12.598;2024-03-02T07:14:39;5.60;99.90
64654;DHT22;51065;48.884;12.598;2024-03-02T07:17:23;5.50;99.90
64654;DHT22;51065;48.884;12.598;2024-03-02T07:19:48;5.60;99.90
64654;DHT22;51065;48.884;12.598;2024-03-02T07:22:14;5.60;99.90
64654;DHT22;51065;48.884;12.598;2024-03-02T07:24:41;5.60;99.90
64654;DHT22;51065;48.884;12.598;2024-03-02T07:27:07;5.60;99.90
64654;DHT22;51065;48.884;12.598;2024-03-02T07:29:34;5.70;99.90
64654;DHT22;51065;48.884;12.598;2024-03-02T07:31:59;5.70;99.90
64654;DHT22;51065;48.884;12.598;2024-03-02T07:34:25;5.70;99.90
64654;DHT22;51065;48.884;12.598;2024-03-02T07:36:51;5.80;99.90
64654;DHT22;51065;48.884;12.598;2024-03-02T07:39:16;5.80;99.90
64654;DHT22;51065;48.884;12.598;2024-03-02T07:41:42;5.80;99.90
64654;DHT22;51065;48.884;12.598;2024-03-02T07:44:08;5.80;99.90
64654;DHT22;51065;48.884;12.598;2024-03-02T07:46:33;5.80;99.90
64654;DHT22;51065;48.884;12.598;2024-03-02T07:48:59;5.80;99.90
64654;DHT22;51065;48.884;12.598;2024-03-02T07:51:24;5.80;99.90
64654;DHT22;51065;48.884;12.598;2024-03-02T07:53:50;5.80;99.90
64654;DHT22;51065;48.884;12.598;2024-03-02T07:56:15;5.90;99.90
64654;DHT22;51065;48.884;12.598;2024-03-02T07:58:48;5.90;99.90
64654;DHT22;51065;48.884;12.598;2024-03-02T08:01:14;6.00;99.90
64654;DHT22;51065;48.884;12.598;2024-03-02T08:03:40;6.00;99.90
64654;DHT22;51065;48.884;12.598;2024-03-02T08:06:07;6.00;99.90
64654;DHT22;51065;48.884;12.598;2024-03-02T08:08:32;6.10;99.90
64654;DHT22;51065;48.884;12.598;2024-03-02T08:10:58;6.10;99.90
64654;DHT22;51065;48.884;12.598;2024-03-02T08:13:23;6.20;99.90
64654;DHT22;51065;48.884;12.598;2024-03-02T08:15:49;6.20;99.90
64654;DHT22;51065;48.884;12.598;2024-03-02T08:18:14;6.30;99.90
64654;DHT22;51065;48.884;12.598;2024-03-02T08:20:40;6.40;99.90
64654;DHT22;51065;48.884;12.598;2024-03-02T08:23:06;6.50;99.90
64654;DHT22;51065;48.884;12.598;2024-03-02T08:25:33;6.60;99.90
64654;DHT22;51065;48.884;12.598;2024-03-02T08:27:59;6.60;99.90
64654;DHT22;51065;48.884;12.598;2024-03-02T08:30:25;6.60;99.90
64654;DHT22;51065;48.884;12.598;2024-03-02T08:32:50;6.70;99.90
64654;DHT22;51065;48.884;12.598;2024-03-02T08:35:16;6.80;99.90
64654;DHT22;51065;48.884;12.598;2024-03-02T08:37:42;6.70;99.90
64654;DHT22;51065;48.884;12.598;2024-03-02T08:40:09;6.90;99.90
64654;DHT22;51065;48.884;12.598;2024-03-02T08:42:34;7.00;99.90
64654;DHT22;51065;48.884;12.598;2024-03-02T08:45:00;7.10;99.90
64654;DHT22;51065;48.884;12.598;2024-03-02T08:47:26;7.20;99.90
64654;DHT22;51065;48.884;12.598;2024-03-02T08:49:52;7.10;99.90
64654;DHT22;51065;48.884;12.598;2024-03-02T08:52:18;7.10;99.90
64654;DHT22;51065;48.884;12.598;2024-03-02T08:54:43;7.20;99.90
64654;DHT22;51065;48.884;12.598;2024-03-02T08:57:09;7.20;99.90
64654;DHT22;51065;48.884;12.598;2024-03-02T08:59:35;7.30;99.90
64654;DHT22;51065;48.884;12.598;2024-03-02T09:02:03;7.50;99.90
64654;DHT22;51065;48.884;12.598;2024-03-02T09:04:29;7.50;99.90
64654;DHT22;51065;48.884;12.598;2024-03-02T09:06:55;7.70;99.90
64654;DHT22;51065;48.884;12.598;2024-03-02T09:09:20;7.70;99.90
64654;DHT22;51065;48.884;12.598;2024-03-02T09:11:46;7.90;99.90
64654;DHT22;51065;48.884;12.598;2024-03-02T09:14:12;8.00;99.90
64654;DHT22;51065;48.884;12.598;2024-03-02T09:16:38;8.00;99.90
64654;DHT22;51065;48.884;12.598;2024-03-02T09:19:03;7.70;99.90
64654;DHT22;51065;48.884;12.598;2024-03-02T09:21:29;7.70;99.90
64654;DHT22;51065;48.884;12.598;2024-03-02T09:23:55;7.60;99.90
64654;DHT22;51065;48.884;12.598;2024-03-02T09:26:22;7.80;99.90
64654;DHT22;51065;48.884;12.598;2024-03-02T09:28:47;7.80;1.00
64654;DHT22;51065;48.884;12.598;2024-03-02T09:31:13;7.90;1.00
64654;DHT22;51065;48.884;12.598;2024-03-02T09:33:39;8.10;1.00
64654;DHT22;51065;48.884;12.598;2024-03-02T09:36:04;8.20;99.90
64654;DHT22;51065;48.884;12.598;2024-03-02T09:38:32;8.40;99.90
64654;DHT22;51065;48.884;12.598;2024-03-02T09:41:00;8.80;99.90
64654;DHT22;51065;48.884;12.598;2024-03-02T09:43:26;8.90;99.90
64654;DHT22;51065;48.884;12.598;2024-03-02T09:45:52;8.90;99.90
64654;DHT22;51065;48.884;12.598;2024-03-02T09:48:18;9.10;99.90
64654;DHT22;51065;48.884;12.598;2024-03-02T09:50:46;8.80;99.90
64654;DHT22;51065;48.884;12.598;2024-03-02T09:53:12;9.20;99.90
64654;DHT22;51065;48.884;12.598;2024-03-02T09:55:38;9.50;1.00
64654;DHT22;51065;48.884;12.598;2024-03-02T09:58:08;9.60;99.90
64654;DHT22;51065;48.884;12.598;2024-03-02T10:00:33;9.20;1.00
64654;DHT22;51065;48.884;12.598;2024-03-02T10:02:59;8.80;99.90
64654;DHT22;51065;48.884;12.598;2024-03-02T10:05:26;9.00;99.90
64654;DHT22;51065;48.884;12.598;2024-03-02T10:08:01;8.80;99.90
64654;DHT22;51065;48.884;12.598;2024-03-02T10:10:38;8.80;1.00
64654;DHT22;51065;48.884;12.598;2024-03-02T10:13:09;8.80;26.50
64654;DHT22;51065;48.884;12.598;2024-03-02T10:15:36;9.00;99.90
64654;DHT22;51065;48.884;12.598;2024-03-02T10:18:11;9.10;99.90
64654;DHT22;51065;48.884;12.598;2024-03-02T10:20:37;9.20;1.00
64654;DHT22;51065;48.884;12.598;2024-03-02T10:23:14;8.70;99.90
64654;DHT22;51065;48.884;12.598;2024-03-02T10:25:40;8.60;99.90
64654;DHT22;51065;48.884;12.598;2024-03-02T10:28:06;8.60;1.00
64654;DHT22;51065;48.884;12.598;2024-03-02T10:30:33;9.10;1.00
64654;DHT22;51065;48.884;12.598;2024-03-02T10:32:59;9.60;99.90
64654;DHT22;51065;48.884;12.598;2024-03-02T10:35:26;9.90;99.90
64654;DHT22;51065;48.884;12.598;2024-03-02T10:37:55;10.10;99.90
64654;DHT22;51065;48.884;12.598;2024-03-02T10:40:22;9.60;1.00
64654;DHT22;51065;48.884;12.598;2024-03-02T10:42:49;9.90;99.90
64654;DHT22;51065;48.884;12.598;2024-03-02T10:45:16;10.40;99.90
64654;DHT22;51065;48.884;12.598;2024-03-02T10:47:43;10.60;99.90
64654;DHT22;51065;48.884;12.598;2024-03-02T10:50:09;10.80;99.90
64654;DHT22;51065;48.884;12.598;2024-03-02T10:52:35;11.10;99.90
64654;DHT22;51065;48.884;12.598;2024-03-02T10:55:01;10.80;99.90
64654;DHT22;51065;48.884;12.598;2024-03-02T10:57:28;10.40;99.90
64654;DHT22;51065;48.884;12.598;2024-03-02T11:00:02;10.00;99.90
64654;DHT22;51065;48.884;12.598;2024-03-02T11:02:30;10.10;1.00
64654;DHT22;51065;48.884;12.598;2024-03-02T11:04:56;10.30;1.00
64654;DHT22;51065;48.884;12.598;2024-03-02T11:07:25;10.60;99.90
64654;DHT22;51065;48.884;12.598;2024-03-02T11:09:59;10.70;1.00
64654;DHT22;51065;48.884;12.598;2024-03-02T11:12:29;10.80;48.00
64654;DHT22;51065;48.884;12.598;2024-03-02T11:14:58;10.40;99.90
64654;DHT22;51065;48.884;12.598;2024-03-02T11:17:25;9.90;99.90
64654;DHT22;51065;48.884;12.598;2024-03-02T11:19:51;9.70;1.00
64654;DHT22;51065;48.884;12.598;2024-03-02T11:22:18;9.90;99.90
64654;DHT22;51065;48.884;12.598;2024-03-02T11:24:52;10.30;1.00
64654;DHT22;51065;48.884;12.598;2024-03-02T11:32:57;11.30;1.00
64654;DHT22;51065;48.884;12.598;2024-03-02T11:35:27;11.40;1.00
64654;DHT22;51065;48.884;12.598;2024-03-02T11:37:56;11.50;99.90
64654;DHT22;51065;48.884;12.598;2024-03-02T11:40:28;11.60;99.90
64654;DHT22;51065;48.884;12.598;2024-03-02T11:42:54;11.30;99.90
64654;DHT22;51065;48.884;12.598;2024-03-02T11:45:24;10.90;99.90
64654;DHT22;51065;48.884;12.598;2024-03-02T11:47:52;11.60;1.00
64654;DHT22;51065;48.884;12.598;2024-03-02T11:50:35;12.20;99.90
64654;DHT22;51065;48.884;12.598;2024-03-02T11:53:09;11.90;1.00
64654;DHT22;51065;48.884;12.598;2024-03-02T11:55:39;12.10;50.30
64654;DHT22;51065;48.884;12.598;2024-03-02T11:58:15;12.30;1.00
64654;DHT22;51065;48.884;12.598;2024-03-02T12:00:53;13.20;99.90
64654;DHT22;51065;48.884;12.598;2024-03-02T12:03:25;12.70;99.90
64654;DHT22;51065;48.884;12.598;2024-03-02T12:05:52;13.10;99.90
64654;DHT22;51065;48.884;12.598;2024-03-02T12:08:18;14.00;1.00
64654;DHT22;51065;48.884;12.598;2024-03-02T12:10:58;13.70;1.00
64654;DHT22;51065;48.884;12.598;2024-03-02T12:13:24;13.00;99.90
64654;DHT22;51065;48.884;12.598;2024-03-02T12:15:53;13.60;99.90
64654;DHT22;51065;48.884;12.598;2024-03-02T12:18:20;13.50;1.00
64654;DHT22;51065;48.884;12.598;2024-03-02T12:20:46;12.70;99.90
64654;DHT22;51065;48.884;12.598;2024-03-02T12:23:14;12.30;99.90
64654;DHT22;51065;48.884;12.598;2024-03-02T12:25:39;12.20;1.00
64654;DHT22;51065;48.884;12.598;2024-03-02T12:28:05;12.30;1.00
64654;DHT22;51065;48.884;12.598;2024-03-02T12:30:34;12.80;99.90
64654;DHT22;51065;48.884;12.598;2024-03-02T12:33:00;12.40;99.90
64654;DHT22;51065;48.884;12.598;2024-03-02T12:35:26;13.10;1.00
64654;DHT22;51065;48.884;12.598;2024-03-02T12:37:52;13.90;8.00
64654;DHT22;51065;48.884;12.598;2024-03-02T12:40:19;13.60;1.00
64654;DHT22;51065;48.884;12.598;2024-03-02T12:42:48;12.50;33.90
64654;DHT22;51065;48.884;12.598;2024-03-02T12:45:15;12.20;99.90
64654;DHT22;51065;48.884;12.598;2024-03-02T12:47:42;12.20;1.00
64654;DHT22;51065;48.884;12.598;2024-03-02T12:50:09;12.70;1.00
64654;DHT22;51065;48.884;12.598;2024-03-02T12:52:34;12.50;99.90
64654;DHT22;51065;48.884;12.598;2024-03-02T12:55:01;12.30;1.00
64654;DHT22;51065;48.884;12.598;2024-03-02T12:57:29;13.80;99.90
64654;DHT22;51065;48.884;12.598;2024-03-02T12:59:59;14.00;1.00
64654;DHT22;51065;48.884;12.598;2024-03-02T13:02:33;14.00;1.00
64654;DHT22;51065;48.884;12.598;2024-03-02T13:04:59;14.30;87.80
64654;DHT22;51065;48.884;12.598;2024-03-02T13:07:25;14.60;99.90
64654;DHT22;51065;48.884;12.598;2024-03-02T13:09:52;12.90;88.70
64654;DHT22;51065;48.884;12.598;2024-03-02T13:12:20;13.40;99.90
64654;DHT22;51065;48.884;12.598;2024-03-02T13:14:52;12.70;99.90
64654;DHT22;51065;48.884;12.598;2024-03-02T13:17:19;12.40;99.90
64654;DHT22;51065;48.884;12.598;2024-03-02T13:19:52;12.40;99.90
64654;DHT22;51065;48.884;12.598;2024-03-02T13:22:18;12.40;1.00
64654;DHT22;51065;48.884;12.598;2024-03-02T13:24:44;13.50;99.90
64654;DHT22;51065;48.884;12.598;2024-03-02T13:27:09;13.80;99.90
64654;DHT22;51065;48.884;12.598;2024-03-02T13:29:35;13.60;1.00
64654;DHT22;51065;48.884;12.598;2024-03-02T13:32:01;13.80;14.90
64654;DHT22;51065;48.884;12.598;2024-03-02T13:34:26;14.10;1.00
64654;DHT22;51065;48.884;12.598;2024-03-02T13:36:52;13.80;97.50
64654;DHT22;51065;48.884;12.598;2024-03-02T13:39:17;13.50;97.20
64654;DHT22;51065;48.884;12.598;2024-03-02T13:41:43;13.60;77.10
64654;DHT22;51065;48.884;12.598;2024-03-02T13:44:17;13.50;99.90
64654;DHT22;51065;48.884;12.598;2024-03-02T13:46:43;14.60;1.00
64654;DHT22;51065;48.884;12.598;2024-03-02T13:49:11;14.60;1.00
64654;DHT22;51065;48.884;12.598;2024-03-02T13:51:37;14.20;99.90
64654;DHT22;51065;48.884;12.598;2024-03-02T13:54:02;14.00;1.00
64654;DHT22;51065;48.884;12.598;2024-03-02T13:56:29;14.80;99.90
64654;DHT22;51065;48.884;12.598;2024-03-02T13:58:54;14.90;99.90
64654;DHT22;51065;48.884;12.598;2024-03-02T14:01:20;13.40;56.70
64654;DHT22;51065;48.884;12.598;2024-03-02T14:03:46;13.20;99.90
64654;DHT22;51065;48.884;12.598;2024-03-02T14:06:12;13.60;99.90
64654;DHT22;51065;48.884;12.598;2024-03-02T14:08:38;13.30;99.90
64654;DHT22;51065;48.884;12.598;2024-03-02T14:11:03;13.80;41.80
64654;DHT22;51065;48.884;12.598;2024-03-02T14:13:29;13.60;12.50
64654;DHT22;51065;48.884;12.598;2024-03-02T14:15:54;13.30;99.90
64654;DHT22;51065;48.884;12.598;2024-03-02T14:18:20;13.50;8.70
64654;DHT22;51065;48.884;12.598;2024-03-02T14:20:47;14.30;1.00
64654;DHT22;51065;48.884;12.598;2024-03-02T14:23:18;15.50;99.90
64654;DHT22;51065;48.884;12.598;2024-03-02T14:25:44;15.70;1.00
64654;DHT22;51065;48.884;12.598;2024-03-02T14:28:10;15.90;1.00
64654;DHT22;51065;48.884;12.598;2024-03-02T14:30:37;14.30;99.90
64654;DHT22;51065;48.884;12.598;2024-03-02T14:33:03;13.30;1.00
64654;DHT22;51065;48.884;12.598;2024-03-02T14:35:28;13.30;99.90
64654;DHT22;51065;48.884;12.598;2024-03-02T14:37:54;13.60;99.90
64654;DHT22;51065;48.884;12.598;2024-03-02T14:40:20;13.30;99.90
64654;DHT22;51065;48.884;12.598;2024-03-02T14:42:47;12.80;99.90
64654;DHT22;51065;48.884;12.598;2024-03-02T14:45:13;12.60;99.90
64654;DHT22;51065;48.884;12.598;2024-03-02T14:47:39;12.50;1.00
64654;DHT22;51065;48.884;12.598;2024-03-02T14:50:05;12.50;1.00
64654;DHT22;51065;48.884;12.598;2024-03-02T14:52:35;12.40;1.00
64654;DHT22;51065;48.884;12.598;2024-03-02T14:55:01;12.00;28.60
64654;DHT22;51065;48.884;12.598;2024-03-02T14:57:29;11.90;99.90
64654;DHT22;51065;48.884;12.598;2024-03-02T14:59:54;11.90;99.90
64654;DHT22;51065;48.884;12.598;2024-03-02T15:02:20;11.80;99.90
64654;DHT22;51065;48.884;12.598;2024-03-02T15:04:46;11.80;99.90
64654;DHT22;51065;48.884;12.598;2024-03-02T15:07:13;11.90;99.90
64654;DHT22;51065;48.884;12.598;2024-03-02T15:09:39;11.90;99.90
64654;DHT22;51065;48.884;12.598;2024-03-02T15:12:05;11.80;99.90
64654;DHT22;51065;48.884;12.598;2024-03-02T15:14:31;11.80;99.90
64654;DHT22;51065;48.884;12.598;2024-03-02T15:16:57;11.70;99.90
64654;DHT22;51065;48.884;12.598;2024-03-02T15:19:23;11.60;99.90
64654;DHT22;51065;48.884;12.598;2024-03-02T15:21:48;11.50;1.00
64654;DHT22;51065;48.884;12.598;2024-03-02T15:24:14;11.50;1.00
64654;DHT22;51065;48.884;12.598;2024-03-02T15:26:40;11.40;1.00
64654;DHT22;51065;48.884;12.598;2024-03-02T15:29:05;11.40;1.00
64654;DHT22;51065;48.884;12.598;2024-03-02T15:31:31;11.40;1.00
64654;DHT22;51065;48.884;12.598;2024-03-02T15:33:57;11.40;1.00